createdAt,value
2019-04-27T00:02:26.543Z,80.20
2019-04-27T00:12:05.727Z,80.40
2019-04-27T00:14:37.157Z,80.40
2019-04-27T00:17:21.150Z,80.20
2019-04-27T00:19:55.715Z,80.00
2019-04-27T00:30:28.242Z,79.50
2019-04-27T00:33:00.570Z,79.70
2019-04-27T00:42:10.433Z,80.40
2019-04-27T00:47:57.401Z,80.90
2019-04-27T00:50:27.851Z,80.90
2019-04-27T00:53:06.224Z,80.90
2019-04-27T00:55:41.368Z,80.90
2019-04-27T00:58:30.590Z,80.90
2019-04-27T01:01:02.016Z,80.90
2019-04-27T01:03:39.879Z,80.80
2019-04-27T01:06:10.853Z,80.50
2019-04-27T01:08:44.911Z,80.50
2019-04-27T01:11:22.701Z,80.40
2019-04-27T01:13:53.783Z,80.20
2019-04-27T01:16:24.653Z,80.10
2019-04-27T01:18:58.954Z,80.00
2019-04-27T01:21:29.629Z,79.80
2019-04-27T01:24:00.963Z,79.60
2019-04-27T01:26:32.362Z,79.60
2019-04-27T01:29:03.773Z,79.30
2019-04-27T01:31:33.589Z,79.10
2019-04-27T01:34:05.738Z,78.70
2019-04-27T01:36:36.934Z,78.50
2019-04-27T01:39:18.612Z,78.30
2019-04-27T01:45:39.070Z,78.20
2019-04-27T01:48:22.489Z,78.00
2019-04-27T01:50:42.714Z,77.80
2019-04-27T01:53:15.436Z,77.70
2019-04-27T01:55:59.209Z,77.70
2019-04-27T01:58:34.148Z,77.50
2019-04-27T02:01:02.904Z,77.40
2019-04-27T02:06:55.681Z,77.70
2019-04-27T02:09:31.050Z,78.10
2019-04-27T02:12:06.821Z,78.20
2019-04-27T02:14:42.150Z,78.30
2019-04-27T02:17:15.203Z,78.60
2019-04-27T02:19:49.271Z,78.70
2019-04-27T02:22:52.439Z,79.10
2019-04-27T02:25:53.099Z,79.30
2019-04-27T02:28:34.642Z,79.60
2019-04-27T02:31:21.470Z,79.80
2019-04-27T02:34:03.032Z,80.00
2019-04-27T02:36:34.221Z,80.30
2019-04-27T02:39:21.664Z,80.60
2019-04-27T02:45:15.352Z,81.30
2019-04-27T02:47:45.205Z,81.40
2019-04-27T02:50:15.050Z,81.70
2019-04-27T02:52:52.082Z,82.00
2019-04-27T02:55:39.950Z,82.10
2019-04-27T02:58:12.997Z,82.40
2019-04-27T03:00:42.548Z,82.80
2019-04-27T03:03:13.906Z,82.90
2019-04-27T03:05:44.740Z,83.20
2019-04-27T03:08:14.566Z,83.20
2019-04-27T03:27:03.994Z,83.70
2019-04-27T03:33:22.790Z,83.40
2019-04-27T03:45:36.361Z,82.30
2019-04-27T04:56:35.707Z,76.00
2019-04-27T04:59:06.085Z,76.00
2019-04-27T05:01:35.941Z,75.70
2019-04-27T05:04:49.176Z,75.40
2019-04-27T05:10:45.933Z,75.20
2019-04-27T05:20:29.360Z,74.50
2019-04-27T05:22:59.619Z,74.10
2019-04-27T05:25:29.640Z,73.90
2019-04-27T05:28:01.465Z,73.70
2019-04-27T05:30:32.776Z,73.40
2019-04-27T05:33:08.839Z,73.20
2019-04-27T05:35:51.502Z,73.10
2019-04-27T05:38:23.054Z,73.40
2019-04-27T05:40:58.842Z,73.00
2019-04-27T05:43:33.254Z,72.90
2019-04-27T05:46:37.179Z,72.60
2019-04-27T05:49:14.392Z,71.90
2019-04-27T05:51:47.907Z,71.60
2019-04-27T05:54:16.807Z,70.90
2019-04-27T05:56:46.637Z,70.40
2019-04-27T05:59:17.064Z,69.60
2019-04-27T06:01:49.231Z,69.00
2019-04-27T06:04:23.707Z,68.90
2019-04-27T06:06:56.450Z,69.30
2019-04-27T06:09:31.085Z,69.10
2019-04-27T06:12:10.465Z,69.60
2019-04-27T06:14:49.306Z,69.30
2019-04-27T06:17:20.411Z,69.30
2019-04-27T06:19:50.982Z,69.10
2019-04-27T06:22:20.790Z,68.70
2019-04-27T06:24:54.258Z,69.60
2019-04-27T06:27:30.450Z,71.40
2019-04-27T06:30:00.138Z,72.20
2019-04-27T06:32:33.617Z,72.60
2019-04-27T06:35:08.820Z,72.70
2019-04-27T06:37:40.775Z,72.20
2019-04-27T06:40:12.301Z,71.60
2019-04-27T06:42:44.255Z,71.40
2019-04-27T06:45:16.343Z,70.30
2019-04-27T06:47:48.827Z,70.10
2019-04-27T06:50:23.217Z,68.60
2019-04-27T06:53:00.904Z,66.10
2019-04-27T06:55:30.927Z,64.10
2019-04-27T06:58:02.774Z,62.20
2019-04-27T07:00:32.794Z,60.60
2019-04-27T07:03:02.816Z,59.90
2019-04-27T07:05:32.652Z,59.40
2019-04-27T07:08:03.953Z,59.70
2019-04-27T07:10:49.698Z,58.50
2019-04-27T07:13:23.767Z,58.00
2019-04-27T07:15:59.816Z,57.40
2019-04-27T07:18:44.510Z,56.90
2019-04-27T07:24:24.607Z,55.50
2019-04-27T07:27:09.358Z,54.50
2019-04-27T07:29:54.139Z,52.80
2019-04-27T07:32:31.218Z,51.70
2019-04-27T07:35:07.076Z,49.90
2019-04-27T07:37:42.698Z,48.90
2019-04-27T07:40:23.462Z,47.50
2019-04-27T07:42:59.326Z,46.90
2019-04-27T07:45:42.883Z,45.90
2019-04-27T07:48:13.350Z,44.90
2019-04-27T07:50:44.881Z,44.90
2019-04-27T07:53:14.704Z,44.90
2019-04-27T07:55:49.492Z,45.70
2019-04-27T07:58:23.222Z,46.40
2019-04-27T08:00:59.534Z,46.60
2019-04-27T08:06:49.655Z,45.90
2019-04-27T08:09:22.040Z,46.10
2019-04-27T08:11:55.012Z,45.70
2019-04-27T08:14:28.594Z,45.40
2019-04-27T08:17:06.430Z,44.40
2019-04-27T08:19:42.148Z,44.40
2019-04-27T08:22:22.985Z,44.60
2019-04-27T08:24:52.829Z,44.00
2019-04-27T08:27:29.330Z,43.20
2019-04-27T08:30:03.660Z,43.20
2019-04-27T08:32:39.037Z,43.10
2019-04-27T08:35:11.806Z,42.90
2019-04-27T08:37:41.625Z,42.80
2019-04-27T08:40:12.830Z,42.90
2019-04-27T08:42:44.599Z,43.00
2019-04-27T08:45:15.950Z,42.60
2019-04-27T08:47:49.831Z,41.90
2019-04-27T08:50:22.424Z,41.90
2019-04-27T08:52:52.323Z,41.70
2019-04-27T08:55:25.260Z,42.10
2019-04-27T08:57:55.437Z,42.10
2019-04-27T09:00:29.122Z,42.20
2019-04-27T09:03:02.233Z,42.30
2019-04-27T09:05:35.006Z,42.30
2019-04-27T09:08:18.967Z,42.00
2019-04-27T09:10:56.374Z,41.90
2019-04-27T09:13:39.401Z,41.80
2019-04-27T09:16:28.826Z,41.10
2019-04-27T09:19:02.219Z,41.20
2019-04-27T09:21:50.617Z,40.50
2019-04-27T09:24:20.494Z,40.80
2019-04-27T09:26:52.813Z,40.50
2019-04-27T09:29:24.330Z,40.50
2019-04-27T09:31:55.085Z,40.00
2019-04-27T09:34:26.152Z,39.90
2019-04-27T09:36:57.193Z,40.00
2019-04-27T09:39:30.371Z,39.90
2019-04-27T09:41:59.940Z,39.60
2019-04-27T09:44:37.013Z,39.60
2019-04-27T09:47:06.104Z,39.50
2019-04-27T09:49:38.504Z,39.50
2019-04-27T09:52:23.355Z,39.40
2019-04-27T09:54:43.025Z,39.60
2019-04-27T09:57:13.477Z,39.70
2019-04-27T09:59:46.025Z,39.60
2019-04-27T10:02:20.041Z,39.40
2019-04-27T10:04:58.217Z,39.30
2019-04-27T10:07:31.717Z,39.20
2019-04-27T10:10:06.943Z,39.40
2019-04-27T10:12:43.567Z,38.90
2019-04-27T10:15:17.589Z,38.80
2019-04-27T10:18:06.023Z,38.80
2019-04-27T10:20:40.944Z,38.80
2019-04-27T10:23:09.529Z,38.70
2019-04-27T10:25:45.828Z,38.90
2019-04-27T10:28:15.703Z,39.20
2019-04-27T10:30:45.826Z,39.10
2019-04-27T10:33:16.192Z,39.10
2019-04-27T10:35:47.330Z,39.30
2019-04-27T10:38:19.961Z,39.10
2019-04-27T10:40:56.597Z,38.80
2019-04-27T10:43:26.583Z,38.60
2019-04-27T10:45:58.965Z,38.40
2019-04-27T10:48:29.693Z,38.40
2019-04-27T10:51:02.644Z,38.50
2019-04-27T10:53:35.558Z,38.20
2019-04-27T10:56:06.903Z,38.20
2019-04-27T10:58:40.947Z,37.60
2019-04-27T11:01:11.306Z,37.40
2019-04-27T11:03:53.051Z,37.60
2019-04-27T11:06:28.343Z,37.50
2019-04-27T11:09:02.499Z,37.30
2019-04-27T11:11:38.540Z,37.10
2019-04-27T11:14:09.386Z,37.00
2019-04-27T11:16:40.174Z,37.20
2019-04-27T11:19:11.100Z,37.20
2019-04-27T11:21:42.320Z,36.80
2019-04-27T11:24:17.596Z,36.90
2019-04-27T11:26:48.299Z,37.40
2019-04-27T11:29:20.716Z,37.90
2019-04-27T11:31:51.218Z,38.40
2019-04-27T11:34:23.786Z,38.40
2019-04-27T11:37:07.315Z,38.10
2019-04-27T11:39:37.320Z,38.30
2019-04-27T11:42:11.548Z,38.10
2019-04-27T11:44:43.018Z,37.70
2019-04-27T11:47:14.179Z,37.40
2019-04-27T11:49:49.385Z,37.50
2019-04-27T11:52:20.728Z,37.60
2019-04-27T11:54:52.219Z,37.70
2019-04-27T11:57:23.340Z,37.40
2019-04-27T11:59:53.644Z,37.30
2019-04-27T12:02:25.763Z,37.20
2019-04-27T12:04:56.102Z,37.60
2019-04-27T12:07:26.014Z,37.40
2019-04-27T12:09:59.551Z,36.90
2019-04-27T12:12:34.250Z,37.20
2019-04-27T12:15:07.140Z,37.80
2019-04-27T12:17:38.333Z,38.40
2019-04-27T12:20:08.954Z,39.00
2019-04-27T12:22:39.789Z,39.40
2019-04-27T12:25:11.494Z,39.30
2019-04-27T12:27:53.342Z,39.10
2019-04-27T12:30:26.167Z,38.70
2019-04-27T12:32:59.819Z,38.00
2019-04-27T12:35:30.606Z,38.10
2019-04-27T12:38:02.418Z,38.40
2019-04-27T12:40:36.896Z,38.90
2019-04-27T12:43:06.854Z,39.80
2019-04-27T12:45:38.587Z,41.10
2019-04-27T12:48:09.898Z,42.10
2019-04-27T12:50:41.067Z,42.30
2019-04-27T12:53:29.692Z,42.90
2019-04-27T12:56:06.193Z,43.60
2019-04-27T12:58:45.327Z,44.90
2019-04-27T13:01:22.538Z,44.60
2019-04-27T13:03:52.349Z,46.50
2019-04-27T13:06:22.297Z,46.50
2019-04-27T13:08:55.792Z,47.90
2019-04-27T13:11:26.541Z,49.20
2019-04-27T13:13:57.811Z,50.90
2019-04-27T13:16:30.513Z,52.20
2019-04-27T13:19:02.003Z,52.20
2019-04-27T13:21:31.846Z,52.90
2019-04-27T13:24:04.514Z,54.40
2019-04-27T13:26:36.157Z,55.80
2019-04-27T13:29:09.077Z,57.90
2019-04-27T13:31:39.025Z,58.60
2019-04-27T13:34:10.893Z,60.20
2019-04-27T13:36:41.144Z,61.90
2019-04-27T13:39:12.048Z,64.60
2019-04-27T13:41:43.610Z,66.70
2019-04-27T13:44:13.701Z,68.20
2019-04-27T13:47:01.177Z,69.30
2019-04-27T13:49:32.911Z,70.80
2019-04-27T13:52:06.035Z,71.40
2019-04-27T13:54:37.165Z,72.60
2019-04-27T13:57:07.601Z,73.80
2019-04-27T13:59:37.507Z,74.60
2019-04-27T14:02:08.913Z,74.90
2019-04-27T14:04:42.315Z,74.90
2019-04-27T14:07:13.482Z,74.00
2019-04-27T14:09:48.924Z,73.50
2019-04-27T14:12:21.292Z,72.90
2019-04-27T14:14:51.948Z,72.10
2019-04-27T14:17:24.530Z,71.00
2019-04-27T14:19:57.057Z,69.90
2019-04-27T14:22:28.195Z,68.10
2019-04-27T14:25:01.031Z,67.00
2019-04-27T14:27:32.494Z,66.60
2019-04-27T14:30:06.658Z,66.10
2019-04-27T14:32:42.212Z,66.50
2019-04-27T14:35:13.943Z,67.00
2019-04-27T14:37:50.213Z,66.70
2019-04-27T14:40:22.005Z,66.50
2019-04-27T14:42:55.300Z,67.00
2019-04-27T14:45:29.713Z,66.30
2019-04-27T14:48:01.069Z,66.90
2019-04-27T14:50:32.799Z,67.00
2019-04-27T14:53:05.104Z,67.00
2019-04-27T14:55:35.935Z,66.90
2019-04-27T14:58:08.750Z,66.90
2019-04-27T15:00:38.741Z,67.60
2019-04-27T15:03:11.817Z,67.90
2019-04-27T15:05:43.001Z,67.70
2019-04-27T15:08:16.945Z,68.20
2019-04-27T15:10:48.328Z,69.00
2019-04-27T15:13:19.704Z,68.80
2019-04-27T15:15:49.567Z,69.50
2019-04-27T15:18:19.812Z,69.10
2019-04-27T15:20:52.184Z,69.70
2019-04-27T15:23:30.731Z,69.30
2019-04-27T15:26:00.805Z,70.10
2019-04-27T15:28:32.382Z,70.70
2019-04-27T15:31:26.721Z,71.30
2019-04-27T15:34:04.183Z,72.20
2019-04-27T15:36:44.966Z,73.80
2019-04-27T15:39:35.082Z,75.00
2019-04-27T15:42:18.991Z,75.70
2019-04-27T15:44:50.013Z,76.40
2019-04-27T15:47:20.275Z,77.50
2019-04-27T15:49:54.519Z,78.20
2019-04-27T15:52:29.569Z,77.70
2019-04-27T15:55:02.619Z,77.30
2019-04-27T15:57:31.946Z,76.90
2019-04-27T16:00:02.684Z,76.90
2019-04-27T16:02:33.002Z,77.10
2019-04-27T16:05:08.325Z,78.10
2019-04-27T16:07:41.948Z,79.30
2019-04-27T16:10:13.556Z,80.80
2019-04-27T16:12:54.899Z,81.90
2019-04-27T16:15:18.497Z,82.40
2019-04-27T16:17:54.885Z,82.60
2019-04-27T16:20:30.078Z,83.20
2019-04-27T16:23:03.152Z,84.40
2019-04-27T16:25:32.793Z,85.40
2019-04-27T16:28:08.989Z,87.00
2019-04-27T16:30:39.044Z,87.70
2019-04-27T16:33:15.485Z,89.20
2019-04-27T16:35:46.092Z,90.40
2019-04-27T16:38:22.334Z,90.70
2019-04-27T16:40:59.657Z,91.20
2019-04-27T16:43:32.813Z,91.60
2019-04-27T16:46:08.895Z,91.90
2019-04-27T16:48:44.936Z,92.20
2019-04-27T16:51:15.660Z,92.60
2019-04-27T16:53:54.586Z,93.10
2019-04-27T16:56:24.617Z,93.70
2019-04-27T16:58:56.808Z,94.30
2019-04-27T17:01:30.788Z,94.70
2019-04-27T17:04:00.766Z,95.00
2019-04-27T17:06:30.707Z,95.50
2019-04-27T17:09:05.962Z,95.80
2019-04-27T17:11:35.319Z,96.10
2019-04-27T17:14:08.350Z,96.40
2019-04-27T17:16:45.930Z,96.60
2019-04-27T17:19:24.536Z,96.90
2019-04-27T17:21:55.978Z,97.00
2019-04-27T17:24:42.009Z,97.40
2019-04-27T17:27:11.561Z,97.70
2019-04-27T17:29:41.313Z,97.70
2019-04-27T17:32:18.122Z,97.60
2019-04-27T17:34:55.567Z,97.70
2019-04-27T17:37:33.865Z,97.90
2019-04-27T17:40:09.524Z,98.00
2019-04-27T17:42:41.432Z,98.10
2019-04-27T17:45:12.108Z,98.40
2019-04-27T17:47:51.947Z,98.40
2019-04-27T17:50:27.947Z,98.50
2019-04-27T17:53:05.311Z,98.60
2019-04-27T17:55:38.816Z,98.50
2019-04-27T17:58:10.152Z,98.40
2019-04-27T18:00:44.685Z,98.50
2019-04-27T18:03:17.605Z,98.60
2019-04-27T18:05:50.568Z,98.60
2019-04-27T18:08:24.562Z,98.40
2019-04-27T18:10:53.735Z,98.20
2019-04-27T18:13:25.580Z,98.10
2019-04-27T18:15:59.985Z,97.90
2019-04-27T18:18:35.049Z,97.80
2019-04-27T18:21:07.026Z,97.80
2019-04-27T18:23:45.407Z,97.70
2019-04-27T18:26:19.368Z,97.70
2019-04-27T18:28:53.857Z,97.90
2019-04-27T18:31:24.771Z,97.90
2019-04-27T18:33:54.705Z,97.80
2019-04-27T18:36:26.091Z,98.10
2019-04-27T18:38:56.635Z,98.10
2019-04-27T18:41:29.504Z,97.90
2019-04-27T18:44:00.938Z,97.90
2019-04-27T18:46:33.660Z,97.90
2019-04-27T18:49:26.363Z,97.70
2019-04-27T18:52:15.498Z,97.80
2019-04-27T18:54:47.556Z,97.70
2019-04-27T18:57:20.993Z,97.70
2019-04-27T18:59:52.662Z,97.60
2019-04-27T19:02:28.745Z,97.80
2019-04-27T19:05:00.990Z,97.70
2019-04-27T19:07:35.217Z,97.70
2019-04-27T19:10:08.938Z,97.60
2019-04-27T19:12:48.263Z,97.50
2019-04-27T19:15:18.512Z,97.60
2019-04-27T19:17:50.126Z,97.40
2019-04-27T19:20:21.446Z,97.40
2019-04-27T19:22:52.483Z,97.50
2019-04-27T19:25:29.552Z,97.40
2019-04-27T19:28:02.116Z,97.40
2019-04-27T19:30:36.802Z,97.50
2019-04-27T19:33:08.188Z,97.50
2019-04-27T19:35:38.369Z,97.50
2019-04-27T19:38:09.771Z,97.50
2019-04-27T19:40:41.507Z,97.50
2019-04-27T19:43:12.452Z,97.60
2019-04-27T19:45:43.425Z,97.70
2019-04-27T19:48:15.533Z,97.70
2019-04-27T19:50:56.125Z,97.80
2019-04-27T19:53:27.279Z,98.00
2019-04-27T19:56:05.656Z,98.00
2019-04-27T19:58:38.973Z,98.20
2019-04-27T20:01:15.080Z,98.20
2019-04-27T20:03:46.736Z,98.40
2019-04-27T20:06:18.779Z,98.50
2019-04-27T20:08:52.809Z,98.60
2019-04-27T20:11:31.574Z,98.80
2019-04-27T20:14:00.828Z,99.00
2019-04-27T20:16:41.821Z,99.20
2019-04-27T20:19:09.355Z,99.20
2019-04-27T20:21:45.286Z,99.30
2019-04-27T20:24:16.718Z,99.40
2019-04-27T20:26:48.318Z,99.40
2019-04-27T20:29:28.997Z,99.50
2019-04-27T20:32:04.489Z,99.70
2019-04-27T20:34:36.759Z,99.50
2019-04-27T20:37:11.898Z,99.60
2019-04-27T20:39:51.400Z,99.60
2019-04-27T20:42:23.454Z,99.60
2019-04-27T20:45:01.606Z,99.50
2019-04-27T20:47:42.356Z,99.50
2019-04-27T20:50:13.390Z,99.60
2019-04-27T20:52:47.507Z,99.60
2019-04-27T20:55:21.379Z,99.60
2019-04-27T20:58:00.976Z,99.60
2019-04-27T21:00:24.817Z,99.70
2019-04-27T21:03:05.279Z,99.70
2019-04-27T21:05:41.071Z,99.70
2019-04-27T21:08:37.850Z,99.90
2019-04-27T21:11:09.484Z,99.90
2019-04-27T21:13:43.948Z,99.90
2019-04-27T21:16:32.139Z,99.90
2019-04-27T21:19:05.060Z,99.90
2019-04-27T21:21:37.963Z,99.90
2019-04-27T21:24:09.364Z,99.90
2019-04-27T21:26:42.553Z,99.90
2019-04-27T21:29:14.355Z,99.90
2019-04-27T21:31:48.052Z,99.90
2019-04-27T21:34:22.473Z,99.90
2019-04-27T21:36:52.696Z,99.90
2019-04-27T21:39:23.924Z,99.90
2019-04-27T21:41:54.280Z,99.90
2019-04-27T21:44:24.140Z,99.90
2019-04-27T21:46:56.377Z,99.90
2019-04-27T21:49:27.543Z,99.90
2019-04-27T21:52:03.124Z,99.90
2019-04-27T21:54:41.555Z,99.90
2019-04-27T21:57:12.770Z,99.90
2019-04-27T21:59:45.396Z,99.90
2019-04-27T22:02:19.771Z,99.90
2019-04-27T22:04:57.392Z,99.90
2019-04-27T22:07:38.880Z,99.90
2019-04-27T22:10:10.324Z,99.90
2019-04-27T22:12:43.987Z,99.90
2019-04-27T22:15:21.203Z,99.90
2019-04-27T22:17:47.805Z,99.90
2019-04-27T22:20:18.243Z,99.90
2019-04-27T22:22:51.637Z,99.90
2019-04-27T22:25:25.035Z,99.90
2019-04-27T22:27:56.569Z,99.90
2019-04-27T22:30:31.274Z,99.90
2019-04-27T22:33:04.135Z,99.90
2019-04-27T22:35:36.661Z,99.90
2019-04-27T22:38:07.951Z,99.90
2019-04-27T22:40:50.825Z,99.90
2019-04-27T22:43:38.096Z,99.90
2019-04-27T22:46:22.815Z,99.90
2019-04-27T22:48:55.602Z,99.90
2019-04-27T22:51:27.043Z,99.90
2019-04-27T22:54:01.341Z,99.90
2019-04-27T22:56:32.392Z,99.90
2019-04-27T22:59:21.677Z,99.90
2019-04-27T23:01:56.820Z,99.90
2019-04-27T23:04:41.631Z,99.90
2019-04-27T23:07:13.045Z,99.90
2019-04-27T23:09:45.191Z,99.90
2019-04-27T23:12:15.166Z,99.90
2019-04-27T23:14:45.027Z,99.90
2019-04-27T23:17:35.109Z,99.90
2019-04-27T23:20:07.331Z,99.90
2019-04-27T23:22:37.961Z,99.90
2019-04-27T23:25:11.595Z,99.90
2019-04-27T23:27:41.545Z,99.90
2019-04-27T23:30:15.269Z,99.90
2019-04-27T23:32:51.886Z,99.90
2019-04-27T23:35:21.918Z,99.90
2019-04-27T23:37:54.893Z,99.90
2019-04-27T23:40:24.760Z,99.90
2019-04-27T23:42:54.916Z,99.90
2019-04-27T23:45:25.560Z,99.90
2019-04-27T23:47:55.812Z,99.90
2019-04-27T23:50:27.246Z,99.90
2019-04-27T23:53:01.932Z,99.90
2019-04-27T23:55:38.035Z,99.90
2019-04-27T23:58:15.100Z,99.90
